Time;durP1;ratioP1;P1;durP2;ratioP2;P2;SDS_P1;SDS_P2;PMS_P1;PMS_P2;Temp;Humidity;BMP_temperature;BMP_pressure;BME280_temperature;BME280_humidity;BME280_pressure;Samples;Min_cycle;Max_cycle;Signal;HPM_P1;HPM_P2
2021/09/24 09:25:36;;;;;;;11.70;3.63;;;16.00;99.90;;;;;;5059135;28;20051;-87
2021/09/24 09:32:12;;;;;;;;;;;;;;;;;;;;;
2021/09/24 09:40:32;;;;;;;5.55;3.15;;;16.40;99.90;;;;;;5128727;23;20037;-89
2021/09/24 09:53:56;;;;;;;;;;;;;;;;;;;;;
2021/09/24 09:57:43;;;;;;;9.18;3.17;;;16.60;99.90;;;;;;4914432;29;20106;-89
2021/09/24 10:01:27;;;;;;;5.30;2.92;;;16.70;99.90;;;;;;4855180;29;20038;-89
2021/09/24 10:14:29;;;;;;;6.18;2.92;;;16.70;99.90;;;;;;4719798;30;20056;-85
2021/09/24 10:17:50;;;;;;;12.02;3.33;;;17.20;99.90;;;;;;4686585;30;20064;-86
2021/09/24 10:21:09;;;;;;;7.20;2.88;;;17.30;99.90;;;;;;4693369;30;20042;-89
2021/09/24 10:24:06;;;;;;;7.60;2.88;;;17.60;99.90;;;;;;5013529;23;20069;-93
2021/09/24 10:45:08;;;;;;;;;;;;;;;;;;;;;
2021/09/24 10:49:57;;;;;;;10.93;4.50;;;17.20;99.90;;;;;;4923831;29;20349;-90
2021/09/24 11:11:12;;;;;;;20.40;5.00;;;18.60;99.90;;;;;;4986925;28;20037;-87
2021/09/24 11:14:45;;;;;;;8.93;4.70;;;18.60;99.90;;;;;;5042309;23;20050;-92
2021/09/24 11:17:49;;;;;;;8.95;4.40;;;18.60;99.90;;;;;;5027071;28;20058;-92
2021/09/24 11:20:57;;;;;;;12.55;4.40;;;18.40;99.90;;;;;;5010103;28;20034;-92
2021/09/24 11:24:02;;;;;;;10.98;4.47;;;18.80;99.70;;;;;;4984363;28;20037;-91
2021/09/24 11:26:58;;;;;;;11.70;4.22;;;18.90;99.80;;;;;;5006276;28;20066;-92
2021/09/24 11:30:12;;;;;;;7.68;4.13;;;18.60;98.80;;;;;;4966632;28;20050;-92
2021/09/24 11:33:46;;;;;;;13.30;4.78;;;19.10;98.30;;;;;;5006887;28;20052;-91
2021/09/24 11:37:02;;;;;;;5.15;2.85;;;19.20;98.50;;;;;;5024343;28;20054;-92
2021/09/24 11:40:18;;;;;;;7.75;3.85;;;19.30;98.20;;;;;;5009144;28;20061;-93
2021/09/24 11:43:21;;;;;;;10.55;3.60;;;19.40;98.50;;;;;;5003671;28;20536;-91
2021/09/24 11:46:39;;;;;;;9.77;3.70;;;19.60;98.20;;;;;;5003067;28;20049;-92
2021/09/24 11:50:01;;;;;;;9.43;3.55;;;19.80;98.40;;;;;;5019818;28;20050;-92
2021/09/24 11:53:46;;;;;;;14.90;3.92;;;19.80;98.00;;;;;;5013401;28;20060;-92
2021/09/24 11:56:41;;;;;;;7.03;2.67;;;20.00;98.00;;;;;;5022982;28;20050;-91
2021/09/24 11:59:31;;;;;;;13.13;3.72;;;20.10;96.80;;;;;;4958381;28;20414;-92
2021/09/24 12:03:10;;;;;;;8.95;2.92;;;20.30;97.60;;;;;;5090394;23;20053;-91
2021/09/24 12:10:30;;;;;;;10.88;3.97;;;20.50;95.80;;;;;;4993941;28;20062;-92
2021/09/24 12:13:23;;;;;;;11.70;3.78;;;20.70;96.40;;;;;;4986816;28;20045;-92
2021/09/24 12:20:07;;;;;;;8.75;2.63;;;20.90;95.90;;;;;;5011126;28;20050;-92
2021/09/24 12:22:57;;;;;;;12.95;3.30;;;20.90;95.60;;;;;;4960567;28;20051;-92
2021/09/24 12:27:14;;;;;;;5.70;2.63;;;19.90;95.10;;;;;;5003341;28;20060;-91
2021/09/24 12:30:42;;;;;;;7.32;2.88;;;21.10;95.30;;;;;;4991064;28;20053;-94
2021/09/24 12:34:55;;;;;;;8.68;3.08;;;21.20;95.20;;;;;;4974694;28;20061;-93
2021/09/24 12:37:47;;;;;;;7.60;2.00;;;21.30;95.40;;;;;;5000015;28;20061;-93
2021/09/24 12:41:17;;;;;;;11.20;3.63;;;21.40;94.90;;;;;;5010562;28;20028;-92
2021/09/24 12:44:08;;;;;;;7.50;3.28;;;21.50;95.30;;;;;;4998987;28;20044;-92
2021/09/24 12:54:05;;;;;;;9.18;2.83;;;21.70;95.00;;;;;;5011670;28;20044;-88
2021/09/24 13:00:42;;;;;;;11.45;2.10;;;21.90;94.50;;;;;;4996364;28;20057;-89
2021/09/24 13:12:54;;;;;;;4.13;2.00;;;21.90;94.40;;;;;;4918922;29;20063;-89
2021/09/24 13:15:36;;;;;;;;;;;;;;;;;;;;;
2021/09/24 13:18:59;;;;;;;15.88;3.85;;;22.20;94.50;;;;;;4995798;28;20068;-87
2021/09/24 13:22:43;;;;;;;8.25;3.20;;;22.30;93.80;;;;;;4961452;28;20050;-87
2021/09/24 13:25:52;;;;;;;7.35;2.58;;;22.30;93.40;;;;;;5007298;28;20033;-86
2021/09/24 13:28:51;;;;;;;6.80;2.25;;;22.50;93.40;;;;;;4997472;28;20058;-83
2021/09/24 13:31:27;;;;;;;10.55;2.88;;;22.50;93.60;;;;;;5002815;28;20042;-84
2021/09/24 13:34:15;;;;;;;9.13;2.40;;;22.50;93.80;;;;;;5012389;28;20056;-85
2021/09/24 13:37:05;;;;;;;5.10;1.77;;;22.80;93.90;;;;;;5029288;28;20058;-87
2021/09/24 13:39:39;;;;;;;9.43;3.08;;;22.60;93.70;;;;;;4996451;28;20050;-83
2021/09/24 13:42:13;;;;;;;7.90;2.40;;;22.70;93.40;;;;;;4994919;28;20056;-83
2021/09/24 13:45:02;;;;;;;6.68;1.95;;;22.70;93.60;;;;;;4990529;28;20041;-85
2021/09/24 13:47:53;;;;;;;6.32;2.20;;;22.80;93.60;;;;;;4958115;28;20049;-84
2021/09/24 13:50:51;;;;;;;6.28;2.63;;;22.80;94.20;;;;;;4994184;28;20056;-83
2021/09/24 13:53:34;;;;;;;9.38;2.72;;;22.90;94.00;;;;;;4992165;28;20038;-84
2021/09/24 13:56:29;;;;;;;;;;;;;;;;;;;;;
2021/09/24 13:59:17;;;;;;;4.93;2.10;;;23.20;93.90;;;;;;4998435;28;20053;-81
2021/09/24 14:02:01;;;;;;;6.15;2.13;;;23.20;93.80;;;;;;4993951;28;20025;-85
2021/09/24 14:05:17;;;;;;;;;;;;;;;;;;;;;
2021/09/24 14:08:43;;;;;;;8.57;2.70;;;23.20;93.60;;;;;;5008723;28;20050;-85
2021/09/24 14:11:20;;;;;;;8.60;3.50;;;23.10;94.10;;;;;;4991854;28;20048;-83
2021/09/24 14:14:01;;;;;;;6.38;2.30;;;23.10;94.10;;;;;;4992515;28;20062;-83
2021/09/24 14:17:25;;;;;;;;;;;;;;;;;;;;;
2021/09/24 14:20:21;;;;;;;8.32;2.55;;;23.10;94.40;;;;;;5008415;28;20054;-84
2021/09/24 14:23:23;;;;;;;;;;;;;;;;;;;;;
2021/09/24 14:25:58;;;;;;;5.90;2.45;;;23.20;94.60;;;;;;5027783;28;20050;-81
2021/09/24 14:28:29;;;;;;;13.20;2.30;;;23.10;94.70;;;;;;5003963;28;20881;-83
2021/09/24 14:31:00;;;;;;;8.98;2.70;;;23.10;94.80;;;;;;4992426;28;20046;-82
2021/09/24 14:34:03;;;;;;;3.95;2.03;;;23.10;94.90;;;;;;5008474;28;20037;-83
2021/09/24 14:36:33;;;;;;;7.63;2.83;;;23.30;94.60;;;;;;4986240;28;20035;-83
2021/09/24 14:39:33;;;;;;;8.90;2.28;;;23.20;94.70;;;;;;4985898;28;20046;-87
2021/09/24 14:42:12;;;;;;;6.82;2.42;;;23.40;94.30;;;;;;4969845;28;20022;-86
2021/09/24 14:44:54;;;;;;;8.25;2.20;;;23.60;94.30;;;;;;5002940;28;20052;-86
2021/09/24 14:48:38;;;;;;;10.68;2.80;;;24.00;94.00;;;;;;5002877;28;20041;-85
2021/09/24 14:51:19;;;;;;;7.13;2.75;;;24.70;92.30;;;;;;5016493;28;20068;-83
2021/09/24 14:53:49;;;;;;;7.65;2.72;;;25.10;93.00;;;;;;4988645;28;20056;-83
2021/09/24 14:56:20;;;;;;;9.30;2.60;;;25.40;92.60;;;;;;5029112;28;20045;-86
2021/09/24 14:59:05;;;;;;;8.13;2.40;;;25.60;92.30;;;;;;5028131;28;20052;-83
2021/09/24 15:01:46;;;;;;;6.07;2.60;;;25.90;92.20;;;;;;5013534;28;20038;-85
2021/09/24 15:04:23;;;;;;;7.65;2.33;;;26.40;91.80;;;;;;5012195;28;20056;-82
2021/09/24 15:07:03;;;;;;;7.93;2.78;;;26.80;91.30;;;;;;5008491;28;20037;-89
2021/09/24 15:10:05;;;;;;;5.35;2.15;;;27.10;90.60;;;;;;4986803;28;20044;-83
2021/09/24 15:12:39;;;;;;;6.55;1.42;;;26.60;90.00;;;;;;4990289;28;20057;-85
2021/09/24 15:15:17;;;;;;;9.23;2.25;;;27.80;90.40;;;;;;5006336;28;20058;-85
2021/09/24 15:18:47;;;;;;;5.60;1.40;;;28.00;89.60;;;;;;5008807;28;20046;-84
2021/09/24 15:21:43;;;;;;;6.30;1.30;;;28.30;88.70;;;;;;4965818;28;20137;-87
2021/09/24 15:27:33;;;;;;;3.63;1.30;;;28.70;86.80;;;;;;4999763;28;20114;-83
2021/09/24 15:30:07;;;;;;;7.40;1.77;;;28.80;87.20;;;;;;5003156;28;20039;-84
2021/09/24 15:32:38;;;;;;;4.82;2.03;;;28.80;87.30;;;;;;4999804;28;20049;-82
2021/09/24 15:35:11;;;;;;;11.05;2.28;;;29.00;87.10;;;;;;5021453;28;20050;-82
2021/09/24 15:37:44;;;;;;;12.48;2.30;;;29.10;85.70;;;;;;5004139;28;20052;-83
2021/09/24 15:40:30;;;;;;;4.60;1.58;;;29.20;84.80;;;;;;5026647;28;20041;-84
2021/09/24 15:43:24;;;;;;;4.45;1.40;;;29.20;85.10;;;;;;5001667;28;20050;-83
2021/09/24 15:46:01;;;;;;;5.05;2.00;;;29.30;84.60;;;;;;5022690;28;20037;-84
2021/09/24 15:48:37;;;;;;;6.50;2.17;;;29.30;84.30;;;;;;5028767;28;20116;-81
2021/09/24 15:51:16;;;;;;;7.03;1.77;;;29.30;84.80;;;;;;5016944;28;20058;-83
2021/09/24 15:53:49;;;;;;;6.10;2.08;;;29.20;84.40;;;;;;5010518;28;20034;-84
2021/09/24 15:56:39;;;;;;;3.97;1.52;;;29.20;84.20;;;;;;5028081;28;20017;-83
2021/09/24 15:59:17;;;;;;;5.80;1.50;;;29.30;84.40;;;;;;4992917;28;20054;-84
2021/09/24 16:01:53;;;;;;;7.03;1.70;;;29.80;84.60;;;;;;5025708;28;20040;-84
2021/09/24 16:04:30;;;;;;;8.05;2.22;;;29.20;84.00;;;;;;5013751;28;20064;-82
2021/09/24 16:07:12;;;;;;;5.20;1.58;;;29.30;84.50;;;;;;5023541;28;20054;-83
2021/09/24 16:09:50;;;;;;;7.18;2.20;;;29.60;83.50;;;;;;5008574;28;20062;-86
2021/09/24 16:12:26;;;;;;;7.60;2.42;;;29.70;83.60;;;;;;5008060;28;20033;-84
2021/09/24 16:14:56;;;;;;;7.97;2.08;;;29.60;83.20;;;;;;4999208;28;20577;-82
2021/09/24 16:17:38;;;;;;;11.87;2.23;;;28.60;83.10;;;;;;5002242;28;20079;-83
2021/09/24 16:20:31;;;;;;;4.30;1.50;;;29.20;83.70;;;;;;4998023;28;20050;-83
2021/09/24 16:23:04;;;;;;;6.07;1.70;;;28.70;84.80;;;;;;4998160;28;20046;-84
2021/09/24 16:25:40;;;;;;;8.30;1.98;;;28.30;85.40;;;;;;4969369;28;20034;-83
2021/09/24 16:28:08;;;;;;;10.40;2.55;;;27.80;86.00;;;;;;4984172;28;20038;-82
2021/09/24 16:30:37;;;;;;;6.95;2.10;;;27.10;87.20;;;;;;5002585;28;20050;-82
2021/09/24 16:33:06;;;;;;;5.05;1.98;;;26.50;88.20;;;;;;5010398;28;20045;-81
2021/09/24 16:35:35;;;;;;;7.25;2.65;;;26.50;89.10;;;;;;5005496;28;20043;-82
2021/09/24 16:38:04;;;;;;;7.30;2.20;;;25.50;89.50;;;;;;5008778;28;20064;-82
2021/09/24 16:40:34;;;;;;;6.13;2.15;;;25.00;90.00;;;;;;5009030;28;20040;-85
2021/09/24 16:43:08;;;;;;;12.05;2.20;;;24.80;90.40;;;;;;5010958;28;20037;-83
2021/09/24 16:45:38;;;;;;;11.25;3.67;;;24.50;90.70;;;;;;4993757;28;20038;-81
2021/09/24 16:48:34;;;;;;;7.40;2.20;;;24.30;91.00;;;;;;4985810;28;20026;-80
2021/09/24 16:51:08;;;;;;;10.68;2.88;;;24.00;91.30;;;;;;5021615;28;20074;-82
2021/09/24 16:53:37;;;;;;;10.57;2.70;;;23.70;91.70;;;;;;4982165;28;20050;-80
2021/09/24 16:56:10;;;;;;;8.25;2.78;;;23.60;91.70;;;;;;4999946;28;20065;-80
2021/09/24 16:58:46;;;;;;;5.47;2.78;;;23.50;92.00;;;;;;5001390;28;20052;-80
2021/09/24 17:01:16;;;;;;;10.30;3.00;;;23.40;92.60;;;;;;4978831;28;20045;-80
2021/09/24 17:03:45;;;;;;;7.28;2.60;;;23.30;92.70;;;;;;5019096;28;20053;-81
2021/09/24 17:06:18;;;;;;;5.68;2.63;;;23.10;92.80;;;;;;5003732;28;20042;-81
2021/09/24 17:08:52;;;;;;;5.65;2.45;;;23.10;93.10;;;;;;4990554;28;20052;-82
2021/09/24 17:11:29;;;;;;;13.88;3.00;;;22.90;93.40;;;;;;4986787;28;20042;-81
2021/09/24 17:14:06;;;;;;;10.45;4.43;;;22.70;93.50;;;;;;4987737;28;20050;-81
2021/09/24 17:16:39;;;;;;;8.65;2.97;;;22.60;94.00;;;;;;4997160;28;20046;-81
2021/09/24 17:19:11;;;;;;;9.10;2.20;;;22.50;93.90;;;;;;4988862;28;20039;-82
2021/09/24 17:21:48;;;;;;;9.90;3.17;;;22.40;94.30;;;;;;5020055;28;20048;-81
2021/09/24 17:24:20;;;;;;;4.53;2.88;;;22.30;94.30;;;;;;4996060;28;20038;-81
2021/09/24 17:26:55;;;;;;;7.72;2.53;;;21.10;94.50;;;;;;5001182;28;20034;-81
2021/09/24 17:29:27;;;;;;;7.85;2.65;;;22.10;94.90;;;;;;5003342;28;20425;-88
2021/09/24 17:32:01;;;;;;;8.73;4.10;;;22.00;95.10;;;;;;5018599;28;20041;-81
2021/09/24 17:35:07;;;;;;;10.15;3.03;;;22.00;95.20;;;;;;5053881;23;20034;-81
2021/09/24 17:37:38;;;;;;;9.70;3.35;;;21.90;96.00;;;;;;4964670;28;20066;-81
2021/09/24 17:40:15;;;;;;;4.95;2.70;;;21.80;95.80;;;;;;4938321;29;20047;-81
2021/09/24 17:42:44;;;;;;;15.60;3.50;;;21.70;95.80;;;;;;4959844;28;20054;-84
2021/09/24 17:45:19;;;;;;;11.43;3.20;;;21.70;95.90;;;;;;4952757;28;20046;-83
2021/09/24 17:47:50;;;;;;;9.57;2.78;;;21.60;96.20;;;;;;4954381;28;20071;-83
2021/09/24 17:50:24;;;;;;;16.65;4.53;;;21.70;96.30;;;;;;4957534;28;20355;-82
2021/09/24 17:52:57;;;;;;;10.07;3.30;;;21.50;96.30;;;;;;4951834;29;20132;-80
2021/09/24 17:55:28;;;;;;;10.57;3.70;;;21.40;96.40;;;;;;4933484;28;20055;-80
2021/09/24 17:58:05;;;;;;;9.55;3.65;;;21.30;96.60;;;;;;4947318;28;20039;-82
2021/09/24 18:00:38;;;;;;;10.00;3.65;;;21.30;96.90;;;;;;4936044;29;20712;-83
2021/09/24 18:03:11;;;;;;;9.02;3.88;;;21.30;96.90;;;;;;4949428;28;20058;-80
2021/09/24 18:05:41;;;;;;;12.30;3.20;;;21.10;97.10;;;;;;4955704;28;20479;-82
2021/09/24 18:08:10;;;;;;;12.20;3.40;;;21.00;97.40;;;;;;4963478;28;20051;-85
2021/09/24 18:10:39;;;;;;;9.80;3.90;;;20.90;97.80;;;;;;4961366;28;20047;-80
2021/09/24 18:13:12;;;;;;;7.85;2.85;;;20.80;97.80;;;;;;4943940;28;20051;-80
2021/09/24 18:15:43;;;;;;;9.82;3.50;;;20.70;97.70;;;;;;4960654;28;20763;-79
2021/09/24 18:18:13;;;;;;;10.30;3.70;;;20.70;98.30;;;;;;4959409;28;20044;-80
2021/09/24 18:20:42;;;;;;;11.68;3.33;;;20.60;98.30;;;;;;4948678;28;20047;-81
2021/09/24 18:23:11;;;;;;;9.55;3.15;;;20.50;98.40;;;;;;4917045;29;20058;-82
2021/09/24 18:25:39;;;;;;;7.68;3.63;;;20.50;98.60;;;;;;4949070;28;20055;-81
2021/09/24 18:28:07;;;;;;;12.32;3.83;;;20.40;98.60;;;;;;4944719;28;20046;-82
2021/09/24 18:30:36;;;;;;;8.50;3.60;;;20.40;98.80;;;;;;4952563;28;20067;-81
2021/09/24 18:33:10;;;;;;;9.88;2.78;;;20.40;99.00;;;;;;4933571;28;20063;-79
2021/09/24 18:35:41;;;;;;;14.13;3.53;;;20.50;99.00;;;;;;4957136;28;20042;-82
2021/09/24 18:38:12;;;;;;;7.38;3.15;;;20.30;99.20;;;;;;4957794;28;20046;-82
2021/09/24 18:40:41;;;;;;;15.50;3.65;;;20.40;99.30;;;;;;4945917;29;20039;-81
2021/09/24 18:43:10;;;;;;;14.02;3.00;;;20.40;99.30;;;;;;4939352;28;20043;-81
2021/09/24 18:45:38;;;;;;;10.43;3.58;;;20.40;99.60;;;;;;4964600;28;20375;-84
2021/09/24 18:48:07;;;;;;;14.38;4.05;;;20.40;99.80;;;;;;4981788;28;20054;-79
2021/09/24 18:50:35;;;;;;;12.80;3.95;;;20.30;99.80;;;;;;4963245;28;20058;-82
2021/09/24 18:53:13;;;;;;;13.10;3.97;;;20.30;99.90;;;;;;4986178;28;20057;-82
2021/09/24 18:55:43;;;;;;;13.50;3.72;;;20.30;99.90;;;;;;4983835;28;20123;-82
2021/09/24 18:58:14;;;;;;;9.00;3.60;;;20.30;99.90;;;;;;4964808;28;20062;-83
2021/09/24 19:00:43;;;;;;;11.07;3.80;;;21.50;99.90;;;;;;4963366;28;20063;-81
2021/09/24 19:03:11;;;;;;;12.10;4.13;;;20.10;99.90;;;;;;4972731;28;20046;-82
2021/09/24 19:05:44;;;;;;;16.48;4.63;;;20.00;99.90;;;;;;4964123;28;20067;-82
2021/09/24 19:08:22;;;;;;;10.88;4.15;;;20.00;99.90;;;;;;4980065;28;20055;-83
2021/09/24 19:10:54;;;;;;;10.60;4.38;;;20.00;99.90;;;;;;4980911;28;20327;-82
2021/09/24 19:13:27;;;;;;;21.55;3.95;;;20.00;99.90;;;;;;4981602;28;20053;-85
2021/09/24 19:15:57;;;;;;;14.20;4.15;;;19.90;99.90;;;;;;4975822;28;20051;-83
2021/09/24 19:18:27;;;;;;;16.58;4.38;;;20.60;99.90;;;;;;4945951;28;20065;-82
2021/09/24 19:21:05;;;;;;;12.38;3.65;;;20.00;99.90;;;;;;4968013;28;20053;-85
2021/09/24 19:23:37;;;;;;;9.35;3.53;;;19.80;99.90;;;;;;4986770;28;20054;-80
2021/09/24 19:26:05;;;;;;;6.90;3.40;;;19.80;99.90;;;;;;4974885;28;20049;-80
2021/09/24 19:28:34;;;;;;;14.57;3.65;;;19.80;99.90;;;;;;4952556;28;20051;-80
2021/09/24 19:31:05;;;;;;;12.05;4.68;;;19.80;99.90;;;;;;4953666;28;20042;-83
2021/09/24 19:33:34;;;;;;;12.48;3.97;;;19.80;99.90;;;;;;4972024;28;20046;-81
2021/09/24 19:36:07;;;;;;;17.08;4.18;;;19.80;99.90;;;;;;4996998;28;20062;-81
2021/09/24 19:38:37;;;;;;;16.40;5.85;;;19.80;99.90;;;;;;4990734;28;20046;-82
2021/09/24 19:41:07;;;;;;;17.90;4.90;;;19.70;99.90;;;;;;4953198;28;20039;-81
2021/09/24 19:43:40;;;;;;;11.38;4.03;;;19.70;99.90;;;;;;4945724;29;20048;-82
2021/09/24 19:46:11;;;;;;;16.77;4.65;;;19.60;99.90;;;;;;4970467;28;20427;-80
2021/09/24 19:48:40;;;;;;;13.52;4.25;;;19.50;99.90;;;;;;4962574;28;20046;-81
2021/09/24 19:51:09;;;;;;;19.90;4.70;;;19.50;99.90;;;;;;4990725;28;20054;-82
2021/09/24 19:53:41;;;;;;;14.80;5.53;;;19.40;99.90;;;;;;4991152;28;20059;-84
2021/09/24 19:56:11;;;;;;;11.60;5.32;;;19.40;99.90;;;;;;4968912;28;20050;-82
2021/09/24 19:58:43;;;;;;;20.83;5.40;;;19.30;99.90;;;;;;4956958;28;20042;-79
2021/09/24 20:01:14;;;;;;;10.43;4.68;;;19.30;99.90;;;;;;4964685;28;20054;-79
2021/09/24 20:03:45;;;;;;;11.40;5.03;;;19.20;99.90;;;;;;4936524;28;20051;-81
2021/09/24 20:06:15;;;;;;;;;;;19.20;99.90;;;;;;4981578;28;20047;-81
2021/09/24 20:08:53;;;;;;;19.02;5.47;;;19.10;99.90;;;;;;4953293;28;19926;-81
2021/09/24 20:11:28;;;;;;;14.98;4.57;;;19.10;99.90;;;;;;4977625;28;20042;-81
2021/09/24 20:13:59;;;;;;;14.52;4.70;;;19.00;99.90;;;;;;4972184;28;20046;-81
2021/09/24 20:16:28;;;;;;;15.25;4.47;;;18.10;99.90;;;;;;4957139;28;20050;-80
2021/09/24 20:18:56;;;;;;;16.33;4.03;;;18.90;99.90;;;;;;4980387;28;20391;-84
2021/09/24 20:21:29;;;;;;;13.53;4.30;;;19.00;99.90;;;;;;4992689;28;20039;-86
2021/09/24 20:23:58;;;;;;;9.50;4.32;;;19.00;99.90;;;;;;4971569;28;20087;-79
2021/09/24 20:26:27;;;;;;;10.95;5.40;;;18.80;99.90;;;;;;4998704;28;20060;-81
2021/09/24 20:29:01;;;;;;;10.70;4.57;;;18.80;99.90;;;;;;4993904;28;20126;-79
2021/09/24 20:31:30;;;;;;;;;;;18.80;99.90;;;;;;4952088;29;20055;-81
2021/09/24 20:34:00;;;;;;;18.95;5.20;;;18.70;99.90;;;;;;4950749;28;19926;-82
2021/09/24 20:36:29;;;;;;;15.35;4.65;;;18.70;99.90;;;;;;4976454;28;20059;-84
2021/09/24 20:38:59;;;;;;;13.38;5.53;;;18.60;99.90;;;;;;4991266;28;20058;-81
2021/09/24 20:41:28;;;;;;;13.00;3.78;;;18.60;99.90;;;;;;4983570;28;20397;-83
2021/09/24 20:43:56;;;;;;;11.90;4.15;;;18.60;99.90;;;;;;4959411;28;20056;-79
2021/09/24 20:46:26;;;;;;;11.07;4.22;;;18.50;99.90;;;;;;4979275;28;20049;-82
2021/09/24 20:48:56;;;;;;;20.95;5.45;;;18.50;99.90;;;;;;4961855;28;20069;-82
2021/09/24 20:51:24;;;;;;;9.57;3.75;;;18.50;99.90;;;;;;5002873;28;20060;-81
2021/09/24 20:53:52;;;;;;;12.00;4.22;;;18.50;99.90;;;;;;5004517;28;20057;-81
2021/09/24 20:56:21;;;;;;;13.30;4.00;;;18.50;99.90;;;;;;4974160;28;20056;-80
2021/09/24 20:58:49;;;;;;;9.73;4.97;;;18.50;99.90;;;;;;5001221;28;20050;-82
2021/09/24 21:01:19;;;;;;;17.23;5.05;;;18.40;99.90;;;;;;4999385;28;20058;-81
2021/09/24 21:03:47;;;;;;;10.70;4.35;;;18.40;99.90;;;;;;4959325;28;20053;-81
2021/09/24 21:06:16;;;;;;;14.20;5.82;;;18.30;99.90;;;;;;4983599;28;20083;-80
2021/09/24 21:08:44;;;;;;;12.88;3.85;;;18.60;99.90;;;;;;4982728;28;20058;-81
2021/09/24 21:11:12;;;;;;;12.48;4.43;;;18.20;99.90;;;;;;4995954;28;20038;-81
2021/09/24 21:13:42;;;;;;;8.82;4.30;;;18.30;99.90;;;;;;4985475;28;20053;-82
2021/09/24 21:16:10;;;;;;;11.90;3.95;;;18.30;99.90;;;;;;4997344;28;20042;-81
2021/09/24 21:18:40;;;;;;;13.20;4.13;;;18.40;99.90;;;;;;4964631;28;20050;-81
2021/09/24 21:21:10;;;;;;;8.48;4.97;;;18.30;99.90;;;;;;4984470;28;20058;-82
2021/09/24 21:23:39;;;;;;;14.35;4.47;;;18.30;99.90;;;;;;4963744;28;21084;-81
2021/09/24 21:26:07;;;;;;;15.70;6.13;;;18.30;99.90;;;;;;4965098;28;20043;-81
2021/09/24 21:28:39;;;;;;;10.73;4.30;;;18.30;99.90;;;;;;4958580;28;20050;-82
2021/09/24 21:31:07;;;;;;;17.63;6.55;;;18.30;99.90;;;;;;4968936;28;20045;-80
2021/09/24 21:33:41;;;;;;;10.13;4.35;;;18.30;99.90;;;;;;4968789;28;20058;-81
2021/09/24 21:36:11;;;;;;;15.88;5.18;;;18.30;99.90;;;;;;4971846;28;20056;-82
2021/09/24 21:38:39;;;;;;;16.67;4.18;;;18.20;99.90;;;;;;4985149;28;20069;-82
2021/09/24 21:41:07;;;;;;;10.88;4.28;;;18.20;99.90;;;;;;4968846;28;20061;-81
2021/09/24 21:43:35;;;;;;;12.07;5.88;;;18.20;99.90;;;;;;4987351;28;20046;-80
2021/09/24 21:46:05;;;;;;;10.35;3.92;;;18.20;99.90;;;;;;4952889;28;20053;-83
2021/09/24 21:48:33;;;;;;;11.63;4.45;;;18.20;99.90;;;;;;4958012;28;20050;-80
2021/09/24 21:51:02;;;;;;;15.10;4.72;;;18.10;99.90;;;;;;4963821;28;20063;-81
2021/09/24 21:53:32;;;;;;;14.73;4.30;;;18.10;99.90;;;;;;4969062;28;20054;-82
2021/09/24 21:56:09;;;;;;;16.08;4.05;;;18.10;99.90;;;;;;4965074;28;20047;-80
2021/09/24 21:58:38;;;;;;;16.63;5.28;;;18.10;99.90;;;;;;4944846;28;20078;-80
2021/09/24 22:01:06;;;;;;;15.40;4.70;;;18.00;99.90;;;;;;4961517;29;20043;-81
2021/09/24 22:03:34;;;;;;;8.25;4.35;;;17.90;99.90;;;;;;4977649;28;20039;-81
2021/09/24 22:06:04;;;;;;;15.07;4.65;;;17.80;99.90;;;;;;4986170;28;20049;-80
2021/09/24 22:08:33;;;;;;;15.20;4.10;;;17.80;99.90;;;;;;4970466;28;20042;-82
2021/09/24 22:11:04;;;;;;;14.65;4.32;;;17.70;99.90;;;;;;4980497;28;20043;-84
2021/09/24 22:13:32;;;;;;;19.90;6.32;;;17.70;99.90;;;;;;4950249;28;20058;-82
2021/09/24 22:16:01;;;;;;;11.70;4.45;;;17.60;99.90;;;;;;4971036;28;20051;-81
2021/09/24 22:18:40;;;;;;;22.17;4.72;;;17.60;99.90;;;;;;4990029;28;20052;-83
2021/09/24 22:21:13;;;;;;;11.27;5.13;;;17.60;99.90;;;;;;4979279;28;20055;-84
2021/09/24 22:23:43;;;;;;;17.30;5.35;;;17.60;99.90;;;;;;4969620;28;20058;-81
2021/09/24 22:26:11;;;;;;;18.65;4.65;;;17.60;99.90;;;;;;4972834;28;20213;-81
2021/09/24 22:28:40;;;;;;;9.38;4.30;;;17.60;99.90;;;;;;4972474;28;20057;-81
2021/09/24 22:31:10;;;;;;;12.98;4.38;;;17.60;99.90;;;;;;4993216;28;20061;-82
2021/09/24 22:33:40;;;;;;;10.93;5.15;;;17.60;99.90;;;;;;4966090;28;20046;-80
2021/09/24 22:36:09;;;;;;;12.73;4.28;;;17.20;99.90;;;;;;4976163;28;20073;-82
2021/09/24 22:38:37;;;;;;;14.60;7.93;;;17.60;99.90;;;;;;4949386;28;20055;-81
2021/09/24 22:41:05;;;;;;;10.23;4.40;;;17.50;99.90;;;;;;4948147;28;20062;-81
2021/09/24 22:43:34;;;;;;;11.82;5.22;;;17.60;99.90;;;;;;4979470;28;20051;-81
2021/09/24 22:46:02;;;;;;;18.58;5.28;;;17.50;99.90;;;;;;4987631;28;20051;-81
2021/09/24 22:48:31;;;;;;;8.85;4.43;;;17.50;99.90;;;;;;4955658;28;20449;-80
2021/09/24 22:51:00;;;;;;;13.75;5.15;;;17.50;99.90;;;;;;4974158;28;20050;-80
2021/09/24 22:53:29;;;;;;;12.63;4.55;;;17.50;99.90;;;;;;4987158;28;20046;-81
2021/09/24 22:55:58;;;;;;;14.85;5.00;;;17.50;99.90;;;;;;4972925;28;20050;-80
2021/09/24 22:58:27;;;;;;;12.52;4.40;;;17.50;99.90;;;;;;4973054;28;20053;-81
2021/09/24 23:00:55;;;;;;;8.57;4.22;;;17.50;99.90;;;;;;4988717;28;20043;-80
2021/09/24 23:03:23;;;;;;;15.35;5.57;;;17.50;99.90;;;;;;4961498;28;20051;-81
2021/09/24 23:05:52;;;;;;;17.17;5.35;;;17.50;99.90;;;;;;4995361;28;20044;-80
2021/09/24 23:08:21;;;;;;;14.45;4.57;;;17.50;99.90;;;;;;4967300;28;20050;-82
2021/09/24 23:10:49;;;;;;;12.80;4.57;;;17.50;99.90;;;;;;4960300;28;20051;-81
2021/09/24 23:13:18;;;;;;;12.70;5.30;;;17.50;99.90;;;;;;5001372;28;20053;-80
2021/09/24 23:15:49;;;;;;;14.40;5.05;;;17.40;99.90;;;;;;4995260;28;20058;-82
2021/09/24 23:18:18;;;;;;;18.35;5.13;;;17.40;99.90;;;;;;4961269;28;20046;-82
2021/09/24 23:20:48;;;;;;;10.55;4.57;;;17.40;99.90;;;;;;4963723;28;20047;-82
2021/09/24 23:23:19;;;;;;;14.93;4.65;;;17.40;99.90;;;;;;4952194;28;20051;-80
2021/09/24 23:25:51;;;;;;;15.02;5.65;;;17.40;99.90;;;;;;4926731;28;20054;-83
2021/09/24 23:28:21;;;;;;;13.93;5.07;;;17.40;99.90;;;;;;4977469;28;20051;-85
2021/09/24 23:30:50;;;;;;;7.80;4.25;;;17.40;99.90;;;;;;4972641;28;20043;-84
2021/09/24 23:33:19;;;;;;;12.43;4.85;;;17.40;99.90;;;;;;4989488;28;20050;-81
2021/09/24 23:35:48;;;;;;;13.70;5.22;;;17.40;99.90;;;;;;4957312;28;20050;-85
2021/09/24 23:38:20;;;;;;;10.85;4.65;;;17.30;99.90;;;;;;4973352;28;20399;-83
2021/09/24 23:40:51;;;;;;;15.77;5.65;;;17.40;99.90;;;;;;4957983;28;20061;-83
2021/09/24 23:43:22;;;;;;;17.13;6.07;;;17.30;99.90;;;;;;4983867;28;20046;-83
2021/09/24 23:45:50;;;;;;;9.80;5.43;;;17.30;99.90;;;;;;4971289;28;20301;-80
2021/09/24 23:48:19;;;;;;;14.13;5.20;;;17.10;99.90;;;;;;4991175;28;20055;-82
2021/09/24 23:50:49;;;;;;;14.35;5.47;;;17.30;99.90;;;;;;4973784;28;20050;-82
2021/09/24 23:53:17;;;;;;;18.05;6.15;;;17.20;99.90;;;;;;4996632;28;20053;-82
2021/09/24 23:55:48;;;;;;;16.30;5.45;;;17.10;99.90;;;;;;4978227;28;20069;-82
2021/09/24 23:58:19;;;;;;;14.25;6.13;;;17.10;99.90;;;;;;4974709;28;20058;-85
